sensor_id;sensor_type;location;lat;lon;timestamp;P1;durP1;ratioP1;P2;durP2;ratioP2
54871;SDS011;43914;57.680;11.982;2024-03-22T00:01:50;14.10;;;4.50;;
54871;SDS011;43914;57.680;11.982;2024-03-22T00:04:16;17.70;;;5.80;;
54871;SDS011;43914;57.680;11.982;2024-03-22T00:06:42;11.30;;;3.80;;
54871;SDS011;43914;57.680;11.982;2024-03-22T00:09:09;13.10;;;4.10;;
54871;SDS011;43914;57.680;11.982;2024-03-22T00:11:35;15.20;;;4.40;;
54871;SDS011;43914;57.680;11.982;2024-03-22T00:14:01;13.00;;;4.70;;
54871;SDS011;43914;57.680;11.982;2024-03-22T00:16:28;14.50;;;4.80;;
54871;SDS011;43914;57.680;11.982;2024-03-22T00:18:53;11.40;;;4.40;;
54871;SDS011;43914;57.680;11.982;2024-03-22T00:21:20;12.80;;;4.90;;
54871;SDS011;43914;57.680;11.982;2024-03-22T00:23:47;16.60;;;5.50;;
54871;SDS011;43914;57.680;11.982;2024-03-22T00:26:13;15.20;;;5.60;;
54871;SDS011;43914;57.680;11.982;2024-03-22T00:28:38;20.10;;;5.90;;
54871;SDS011;43914;57.680;11.982;2024-03-22T00:31:04;14.80;;;5.70;;
54871;SDS011;43914;57.680;11.982;2024-03-22T00:33:29;21.60;;;6.50;;
54871;SDS011;43914;57.680;11.982;2024-03-22T00:35:55;19.50;;;5.30;;
54871;SDS011;43914;57.680;11.982;2024-03-22T00:38:20;15.30;;;5.20;;
54871;SDS011;43914;57.680;11.982;2024-03-22T00:40:46;18.50;;;5.00;;
54871;SDS011;43914;57.680;11.982;2024-03-22T00:43:11;18.30;;;4.20;;
54871;SDS011;43914;57.680;11.982;2024-03-22T00:45:37;14.20;;;4.50;;
54871;SDS011;43914;57.680;11.982;2024-03-22T00:48:02;15.80;;;5.00;;
54871;SDS011;43914;57.680;11.982;2024-03-22T00:50:28;16.20;;;4.30;;
54871;SDS011;43914;57.680;11.982;2024-03-22T00:52:54;17.30;;;4.90;;
54871;SDS011;43914;57.680;11.982;2024-03-22T00:55:23;14.30;;;4.00;;
54871;SDS011;43914;57.680;11.982;2024-03-22T00:57:48;12.10;;;4.00;;
54871;SDS011;43914;57.680;11.982;2024-03-22T01:00:14;16.90;;;4.80;;
54871;SDS011;43914;57.680;11.982;2024-03-22T01:02:41;15.60;;;4.80;;
54871;SDS011;43914;57.680;11.982;2024-03-22T01:05:07;15.40;;;4.50;;
54871;SDS011;43914;57.680;11.982;2024-03-22T01:07:33;23.90;;;6.10;;
54871;SDS011;43914;57.680;11.982;2024-03-22T01:09:58;20.50;;;5.60;;
54871;SDS011;43914;57.680;11.982;2024-03-22T01:12:23;18.60;;;5.70;;
54871;SDS011;43914;57.680;11.982;2024-03-22T01:14:49;22.80;;;5.70;;
54871;SDS011;43914;57.680;11.982;2024-03-22T01:17:14;24.40;;;5.90;;
54871;SDS011;43914;57.680;11.982;2024-03-22T01:19:40;18.50;;;6.10;;
54871;SDS011;43914;57.680;11.982;2024-03-22T01:22:05;24.40;;;6.50;;
54871;SDS011;43914;57.680;11.982;2024-03-22T01:24:31;23.80;;;6.20;;
54871;SDS011;43914;57.680;11.982;2024-03-22T01:26:57;21.40;;;5.80;;
54871;SDS011;43914;57.680;11.982;2024-03-22T01:29:22;16.60;;;4.40;;
54871;SDS011;43914;57.680;11.982;2024-03-22T01:31:48;26.90;;;5.50;;
54871;SDS011;43914;57.680;11.982;2024-03-22T01:34:14;18.80;;;5.90;;
54871;SDS011;43914;57.680;11.982;2024-03-22T01:36:40;19.00;;;4.40;;
54871;SDS011;43914;57.680;11.982;2024-03-22T01:39:05;18.30;;;5.00;;
54871;SDS011;43914;57.680;11.982;2024-03-22T01:41:31;20.50;;;5.60;;
54871;SDS011;43914;57.680;11.982;2024-03-22T01:43:56;21.40;;;5.60;;
54871;SDS011;43914;57.680;11.982;2024-03-22T01:46:22;20.00;;;5.50;;
54871;SDS011;43914;57.680;11.982;2024-03-22T01:48:48;20.20;;;5.60;;
54871;SDS011;43914;57.680;11.982;2024-03-22T01:51:14;21.70;;;5.70;;
54871;SDS011;43914;57.680;11.982;2024-03-22T01:53:39;13.80;;;4.60;;
54871;SDS011;43914;57.680;11.982;2024-03-22T01:56:05;18.80;;;5.50;;
54871;SDS011;43914;57.680;11.982;2024-03-22T01:58:32;15.60;;;4.80;;
54871;SDS011;43914;57.680;11.982;2024-03-22T02:00:58;17.10;;;5.60;;
54871;SDS011;43914;57.680;11.982;2024-03-22T02:03:23;15.70;;;5.30;;
54871;SDS011;43914;57.680;11.982;2024-03-22T02:05:49;14.50;;;5.80;;
54871;SDS011;43914;57.680;11.982;2024-03-22T02:08:14;19.50;;;5.60;;
54871;SDS011;43914;57.680;11.982;2024-03-22T02:10:40;17.10;;;5.60;;
54871;SDS011;43914;57.680;11.982;2024-03-22T02:13:05;12.40;;;5.10;;
54871;SDS011;43914;57.680;11.982;2024-03-22T02:15:30;18.50;;;5.30;;
54871;SDS011;43914;57.680;11.982;2024-03-22T02:17:56;16.10;;;5.10;;
54871;SDS011;43914;57.680;11.982;2024-03-22T02:20:21;20.40;;;6.20;;
54871;SDS011;43914;57.680;11.982;2024-03-22T02:22:47;16.20;;;6.80;;
54871;SDS011;43914;57.680;11.982;2024-03-22T02:25:12;17.10;;;6.20;;
54871;SDS011;43914;57.680;11.982;2024-03-22T02:27:41;15.50;;;6.70;;
54871;SDS011;43914;57.680;11.982;2024-03-22T02:30:06;12.20;;;5.10;;
54871;SDS011;43914;57.680;11.982;2024-03-22T02:32:33;18.40;;;6.90;;
54871;SDS011;43914;57.680;11.982;2024-03-22T02:34:58;19.70;;;7.60;;
54871;SDS011;43914;57.680;11.982;2024-03-22T02:37:24;18.90;;;7.90;;
54871;SDS011;43914;57.680;11.982;2024-03-22T02:39:49;21.00;;;8.10;;
54871;SDS011;43914;57.680;11.982;2024-03-22T02:42:16;21.80;;;7.80;;
54871;SDS011;43914;57.680;11.982;2024-03-22T02:44:41;35.20;;;8.50;;
54871;SDS011;43914;57.680;11.982;2024-03-22T02:47:09;20.20;;;8.30;;
54871;SDS011;43914;57.680;11.982;2024-03-22T02:49:35;18.70;;;7.60;;
54871;SDS011;43914;57.680;11.982;2024-03-22T02:52:01;21.00;;;7.60;;
54871;SDS011;43914;57.680;11.982;2024-03-22T02:54:27;20.60;;;8.20;;
54871;SDS011;43914;57.680;11.982;2024-03-22T02:56:52;43.50;;;9.00;;
54871;SDS011;43914;57.680;11.982;2024-03-22T02:59:18;13.80;;;6.90;;
54871;SDS011;43914;57.680;11.982;2024-03-22T03:01:43;27.40;;;8.40;;
54871;SDS011;43914;57.680;11.982;2024-03-22T03:04:09;20.30;;;7.30;;
54871;SDS011;43914;57.680;11.982;2024-03-22T03:06:34;28.20;;;8.20;;
54871;SDS011;43914;57.680;11.982;2024-03-22T03:09:00;30.80;;;8.40;;
54871;SDS011;43914;57.680;11.982;2024-03-22T03:11:25;18.10;;;7.10;;
54871;SDS011;43914;57.680;11.982;2024-03-22T03:13:51;46.30;;;9.10;;
54871;SDS011;43914;57.680;11.982;2024-03-22T03:16:18;113.60;;;9.90;;
54871;SDS011;43914;57.680;11.982;2024-03-22T03:18:43;25.90;;;7.70;;
54871;SDS011;43914;57.680;11.982;2024-03-22T03:21:08;47.70;;;9.30;;
54871;SDS011;43914;57.680;11.982;2024-03-22T03:23:34;32.90;;;8.60;;
54871;SDS011;43914;57.680;11.982;2024-03-22T03:25:59;40.70;;;11.40;;
54871;SDS011;43914;57.680;11.982;2024-03-22T03:28:25;57.50;;;11.70;;
54871;SDS011;43914;57.680;11.982;2024-03-22T03:30:52;22.40;;;9.40;;
54871;SDS011;43914;57.680;11.982;2024-03-22T03:33:17;28.80;;;9.30;;
54871;SDS011;43914;57.680;11.982;2024-03-22T03:35:46;16.70;;;6.60;;
54871;SDS011;43914;57.680;11.982;2024-03-22T03:38:12;117.10;;;10.40;;
54871;SDS011;43914;57.680;11.982;2024-03-22T03:40:38;27.80;;;7.10;;
54871;SDS011;43914;57.680;11.982;2024-03-22T03:43:03;76.50;;;9.60;;
54871;SDS011;43914;57.680;11.982;2024-03-22T03:45:29;91.20;;;8.30;;
54871;SDS011;43914;57.680;11.982;2024-03-22T03:47:54;39.30;;;8.00;;
54871;SDS011;43914;57.680;11.982;2024-03-22T03:50:20;74.20;;;8.10;;
54871;SDS011;43914;57.680;11.982;2024-03-22T03:52:45;12.70;;;5.30;;
54871;SDS011;43914;57.680;11.982;2024-03-22T03:55:10;82.50;;;7.80;;
54871;SDS011;43914;57.680;11.982;2024-03-22T03:57:36;51.90;;;8.10;;
54871;SDS011;43914;57.680;11.982;2024-03-22T04:00:02;105.70;;;9.20;;
54871;SDS011;43914;57.680;11.982;2024-03-22T04:02:28;14.90;;;6.20;;
54871;SDS011;43914;57.680;11.982;2024-03-22T04:04:54;15.80;;;5.80;;
54871;SDS011;43914;57.680;11.982;2024-03-22T04:07:20;13.70;;;5.10;;
54871;SDS011;43914;57.680;11.982;2024-03-22T04:09:46;87.70;;;8.10;;
54871;SDS011;43914;57.680;11.982;2024-03-22T04:12:12;21.90;;;5.70;;
54871;SDS011;43914;57.680;11.982;2024-03-22T04:14:38;42.50;;;6.20;;
54871;SDS011;43914;57.680;11.982;2024-03-22T04:17:04;67.90;;;6.40;;
54871;SDS011;43914;57.680;11.982;2024-03-22T04:19:29;62.10;;;6.50;;
54871;SDS011;43914;57.680;11.982;2024-03-22T04:21:55;31.40;;;5.90;;
54871;SDS011;43914;57.680;11.982;2024-03-22T04:24:20;108.10;;;7.90;;
54871;SDS011;43914;57.680;11.982;2024-03-22T04:26:46;25.00;;;5.80;;
54871;SDS011;43914;57.680;11.982;2024-03-22T04:29:11;19.50;;;7.40;;
54871;SDS011;43914;57.680;11.982;2024-03-22T04:31:36;39.60;;;7.50;;
54871;SDS011;43914;57.680;11.982;2024-03-22T04:34:02;67.10;;;7.80;;
54871;SDS011;43914;57.680;11.982;2024-03-22T04:36:27;40.10;;;7.90;;
54871;SDS011;43914;57.680;11.982;2024-03-22T04:38:53;46.10;;;7.60;;
54871;SDS011;43914;57.680;11.982;2024-03-22T04:41:18;19.20;;;7.00;;
54871;SDS011;43914;57.680;11.982;2024-03-22T04:43:44;71.10;;;10.20;;
54871;SDS011;43914;57.680;11.982;2024-03-22T04:46:09;122.70;;;10.00;;
54871;SDS011;43914;57.680;11.982;2024-03-22T04:48:35;19.10;;;6.80;;
54871;SDS011;43914;57.680;11.982;2024-03-22T04:51:00;84.90;;;8.30;;
54871;SDS011;43914;57.680;11.982;2024-03-22T04:53:26;93.40;;;8.60;;
54871;SDS011;43914;57.680;11.982;2024-03-22T04:55:52;18.20;;;6.40;;
54871;SDS011;43914;57.680;11.982;2024-03-22T04:58:18;36.70;;;7.00;;
54871;SDS011;43914;57.680;11.982;2024-03-22T05:00:48;128.20;;;9.80;;
54871;SDS011;43914;57.680;11.982;2024-03-22T05:03:14;55.10;;;8.20;;
54871;SDS011;43914;57.680;11.982;2024-03-22T05:05:42;141.10;;;10.10;;
54871;SDS011;43914;57.680;11.982;2024-03-22T05:08:08;39.70;;;7.50;;
54871;SDS011;43914;57.680;11.982;2024-03-22T05:10:34;71.20;;;9.20;;
54871;SDS011;43914;57.680;11.982;2024-03-22T05:13:00;42.70;;;9.10;;
54871;SDS011;43914;57.680;11.982;2024-03-22T05:15:26;45.50;;;9.70;;
54871;SDS011;43914;57.680;11.982;2024-03-22T05:17:52;66.00;;;10.70;;
54871;SDS011;43914;57.680;11.982;2024-03-22T05:20:18;48.80;;;9.90;;
54871;SDS011;43914;57.680;11.982;2024-03-22T05:22:44;25.00;;;8.50;;
54871;SDS011;43914;57.680;11.982;2024-03-22T05:25:10;21.70;;;7.60;;
54871;SDS011;43914;57.680;11.982;2024-03-22T05:27:37;38.20;;;10.60;;
54871;SDS011;43914;57.680;11.982;2024-03-22T05:30:03;40.10;;;9.60;;
54871;SDS011;43914;57.680;11.982;2024-03-22T05:32:29;49.20;;;10.20;;
54871;SDS011;43914;57.680;11.982;2024-03-22T05:34:55;98.70;;;10.70;;
54871;SDS011;43914;57.680;11.982;2024-03-22T05:37:21;32.00;;;8.50;;
54871;SDS011;43914;57.680;11.982;2024-03-22T05:39:47;43.10;;;10.20;;
54871;SDS011;43914;57.680;11.982;2024-03-22T05:42:13;65.80;;;12.10;;
54871;SDS011;43914;57.680;11.982;2024-03-22T05:44:38;32.90;;;9.50;;
54871;SDS011;43914;57.680;11.982;2024-03-22T05:47:04;64.50;;;11.40;;
54871;SDS011;43914;57.680;11.982;2024-03-22T05:49:29;21.60;;;7.70;;
54871;SDS011;43914;57.680;11.982;2024-03-22T05:51:55;33.80;;;9.50;;
54871;SDS011;43914;57.680;11.982;2024-03-22T05:54:20;24.00;;;8.40;;
54871;SDS011;43914;57.680;11.982;2024-03-22T05:56:46;24.70;;;9.50;;
54871;SDS011;43914;57.680;11.982;2024-03-22T05:59:13;61.10;;;10.50;;
54871;SDS011;43914;57.680;11.982;2024-03-22T06:01:38;101.60;;;11.40;;
54871;SDS011;43914;57.680;11.982;2024-03-22T06:04:04;35.70;;;9.60;;
54871;SDS011;43914;57.680;11.982;2024-03-22T06:06:34;23.10;;;10.20;;
54871;SDS011;43914;57.680;11.982;2024-03-22T06:09:01;56.10;;;11.20;;
54871;SDS011;43914;57.680;11.982;2024-03-22T06:11:34;47.60;;;11.80;;
54871;SDS011;43914;57.680;11.982;2024-03-22T06:14:01;60.90;;;9.90;;
54871;SDS011;43914;57.680;11.982;2024-03-22T06:16:26;27.90;;;9.70;;
54871;SDS011;43914;57.680;11.982;2024-03-22T06:18:52;33.40;;;11.30;;
54871;SDS011;43914;57.680;11.982;2024-03-22T06:21:17;30.50;;;11.50;;
54871;SDS011;43914;57.680;11.982;2024-03-22T06:23:49;26.10;;;10.80;;
54871;SDS011;43914;57.680;11.982;2024-03-22T06:26:15;41.30;;;11.60;;
54871;SDS011;43914;57.680;11.982;2024-03-22T06:28:40;34.00;;;11.90;;
54871;SDS011;43914;57.680;11.982;2024-03-22T06:31:06;26.60;;;12.10;;
54871;SDS011;43914;57.680;11.982;2024-03-22T06:33:31;24.00;;;10.20;;
54871;SDS011;43914;57.680;11.982;2024-03-22T06:35:57;26.70;;;9.20;;
54871;SDS011;43914;57.680;11.982;2024-03-22T06:38:22;31.30;;;10.40;;
54871;SDS011;43914;57.680;11.982;2024-03-22T06:40:47;35.20;;;12.20;;
54871;SDS011;43914;57.680;11.982;2024-03-22T06:43:13;26.00;;;9.80;;
54871;SDS011;43914;57.680;11.982;2024-03-22T06:45:38;30.40;;;11.10;;
54871;SDS011;43914;57.680;11.982;2024-03-22T06:48:04;24.30;;;10.10;;
54871;SDS011;43914;57.680;11.982;2024-03-22T06:50:30;31.00;;;10.30;;
54871;SDS011;43914;57.680;11.982;2024-03-22T06:52:55;29.50;;;10.30;;
54871;SDS011;43914;57.680;11.982;2024-03-22T06:55:21;18.60;;;9.30;;
54871;SDS011;43914;57.680;11.982;2024-03-22T06:57:49;26.90;;;11.00;;
54871;SDS011;43914;57.680;11.982;2024-03-22T07:00:16;36.80;;;11.00;;
54871;SDS011;43914;57.680;11.982;2024-03-22T07:02:43;49.30;;;11.60;;
54871;SDS011;43914;57.680;11.982;2024-03-22T07:05:09;22.00;;;9.80;;
54871;SDS011;43914;57.680;11.982;2024-03-22T07:07:37;23.00;;;10.10;;
54871;SDS011;43914;57.680;11.982;2024-03-22T07:10:03;25.00;;;10.10;;
54871;SDS011;43914;57.680;11.982;2024-03-22T07:12:33;32.10;;;10.20;;
54871;SDS011;43914;57.680;11.982;2024-03-22T07:15:01;35.80;;;10.30;;
54871;SDS011;43914;57.680;11.982;2024-03-22T07:17:28;35.60;;;9.80;;
54871;SDS011;43914;57.680;11.982;2024-03-22T07:19:54;49.10;;;12.50;;
54871;SDS011;43914;57.680;11.982;2024-03-22T07:22:20;27.60;;;10.00;;
54871;SDS011;43914;57.680;11.982;2024-03-22T07:24:46;47.40;;;10.60;;
54871;SDS011;43914;57.680;11.982;2024-03-22T07:27:13;29.30;;;9.50;;
54871;SDS011;43914;57.680;11.982;2024-03-22T07:29:40;61.00;;;11.30;;
54871;SDS011;43914;57.680;11.982;2024-03-22T07:32:05;22.00;;;9.70;;
54871;SDS011;43914;57.680;11.982;2024-03-22T07:34:31;28.20;;;8.90;;
54871;SDS011;43914;57.680;11.982;2024-03-22T07:36:57;23.20;;;8.30;;
54871;SDS011;43914;57.680;11.982;2024-03-22T07:39:22;29.80;;;9.00;;
54871;SDS011;43914;57.680;11.982;2024-03-22T07:41:49;31.40;;;10.00;;
54871;SDS011;43914;57.680;11.982;2024-03-22T07:44:15;41.90;;;9.80;;
54871;SDS011;43914;57.680;11.982;2024-03-22T07:46:43;32.30;;;9.60;;
54871;SDS011;43914;57.680;11.982;2024-03-22T07:49:09;29.90;;;9.20;;
54871;SDS011;43914;57.680;11.982;2024-03-22T07:51:34;25.20;;;7.80;;
54871;SDS011;43914;57.680;11.982;2024-03-22T07:54:00;25.70;;;7.70;;
54871;SDS011;43914;57.680;11.982;2024-03-22T07:56:25;21.20;;;7.90;;
54871;SDS011;43914;57.680;11.982;2024-03-22T07:58:51;17.00;;;6.60;;
54871;SDS011;43914;57.680;11.982;2024-03-22T08:01:17;24.70;;;7.50;;
54871;SDS011;43914;57.680;11.982;2024-03-22T08:03:43;34.30;;;8.90;;
54871;SDS011;43914;57.680;11.982;2024-03-22T08:06:08;45.50;;;7.50;;
54871;SDS011;43914;57.680;11.982;2024-03-22T08:08:34;24.90;;;8.50;;
54871;SDS011;43914;57.680;11.982;2024-03-22T08:10:59;39.80;;;8.70;;
54871;SDS011;43914;57.680;11.982;2024-03-22T08:13:24;24.70;;;8.40;;
54871;SDS011;43914;57.680;11.982;2024-03-22T08:15:50;18.90;;;6.40;;
54871;SDS011;43914;57.680;11.982;2024-03-22T08:18:15;35.30;;;8.20;;
54871;SDS011;43914;57.680;11.982;2024-03-22T08:20:41;25.40;;;8.20;;
54871;SDS011;43914;57.680;11.982;2024-03-22T08:23:07;27.80;;;7.60;;
54871;SDS011;43914;57.680;11.982;2024-03-22T08:25:32;49.80;;;8.90;;
54871;SDS011;43914;57.680;11.982;2024-03-22T08:27:59;19.50;;;5.90;;
54871;SDS011;43914;57.680;11.982;2024-03-22T08:30:25;22.80;;;7.90;;
54871;SDS011;43914;57.680;11.982;2024-03-22T08:32:51;57.20;;;8.40;;
54871;SDS011;43914;57.680;11.982;2024-03-22T08:35:17;32.20;;;8.80;;
54871;SDS011;43914;57.680;11.982;2024-03-22T08:37:42;27.10;;;6.80;;
54871;SDS011;43914;57.680;11.982;2024-03-22T08:40:07;40.60;;;8.70;;
54871;SDS011;43914;57.680;11.982;2024-03-22T08:42:33;27.10;;;6.20;;
54871;SDS011;43914;57.680;11.982;2024-03-22T08:44:59;26.60;;;7.30;;
54871;SDS011;43914;57.680;11.982;2024-03-22T08:47:25;26.10;;;7.40;;
54871;SDS011;43914;57.680;11.982;2024-03-22T08:49:50;33.60;;;8.00;;
54871;SDS011;43914;57.680;11.982;2024-03-22T08:52:16;36.60;;;8.60;;
54871;SDS011;43914;57.680;11.982;2024-03-22T08:54:41;38.40;;;7.10;;
54871;SDS011;43914;57.680;11.982;2024-03-22T08:57:07;44.30;;;8.50;;
54871;SDS011;43914;57.680;11.982;2024-03-22T08:59:32;28.20;;;7.60;;
54871;SDS011;43914;57.680;11.982;2024-03-22T09:01:58;60.60;;;9.00;;
54871;SDS011;43914;57.680;11.982;2024-03-22T09:04:24;56.20;;;9.20;;
54871;SDS011;43914;57.680;11.982;2024-03-22T09:06:50;32.50;;;7.60;;
54871;SDS011;43914;57.680;11.982;2024-03-22T09:09:16;38.80;;;8.10;;
54871;SDS011;43914;57.680;11.982;2024-03-22T09:11:42;41.40;;;9.10;;
54871;SDS011;43914;57.680;11.982;2024-03-22T09:14:08;31.10;;;8.30;;
54871;SDS011;43914;57.680;11.982;2024-03-22T09:16:34;37.20;;;8.60;;
54871;SDS011;43914;57.680;11.982;2024-03-22T09:18:59;44.80;;;9.00;;
54871;SDS011;43914;57.680;11.982;2024-03-22T09:21:25;39.00;;;8.40;;
54871;SDS011;43914;57.680;11.982;2024-03-22T09:23:50;50.90;;;9.90;;
54871;SDS011;43914;57.680;11.982;2024-03-22T09:26:16;49.50;;;9.30;;
54871;SDS011;43914;57.680;11.982;2024-03-22T09:28:45;39.20;;;8.60;;
54871;SDS011;43914;57.680;11.982;2024-03-22T09:31:11;44.40;;;8.80;;
54871;SDS011;43914;57.680;11.982;2024-03-22T09:33:37;51.70;;;9.70;;
54871;SDS011;43914;57.680;11.982;2024-03-22T09:36:02;50.60;;;9.20;;
54871;SDS011;43914;57.680;11.982;2024-03-22T09:38:29;51.80;;;9.20;;
54871;SDS011;43914;57.680;11.982;2024-03-22T09:40:55;49.50;;;8.70;;
54871;SDS011;43914;57.680;11.982;2024-03-22T09:43:21;52.60;;;8.90;;
54871;SDS011;43914;57.680;11.982;2024-03-22T09:45:49;55.70;;;8.90;;
54871;SDS011;43914;57.680;11.982;2024-03-22T09:48:17;38.10;;;8.40;;
54871;SDS011;43914;57.680;11.982;2024-03-22T09:50:45;39.90;;;7.30;;
54871;SDS011;43914;57.680;11.982;2024-03-22T09:53:12;60.50;;;9.10;;
54871;SDS011;43914;57.680;11.982;2024-03-22T09:55:38;37.80;;;6.90;;
54871;SDS011;43914;57.680;11.982;2024-03-22T09:58:08;47.30;;;8.40;;
54871;SDS011;43914;57.680;11.982;2024-03-22T10:00:35;43.00;;;7.60;;
54871;SDS011;43914;57.680;11.982;2024-03-22T10:03:00;45.60;;;8.30;;
54871;SDS011;43914;57.680;11.982;2024-03-22T10:05:27;50.80;;;9.20;;
54871;SDS011;43914;57.680;11.982;2024-03-22T10:07:52;51.00;;;8.50;;
54871;SDS011;43914;57.680;11.982;2024-03-22T10:10:19;46.30;;;7.70;;
54871;SDS011;43914;57.680;11.982;2024-03-22T10:12:44;51.20;;;9.30;;
54871;SDS011;43914;57.680;11.982;2024-03-22T10:15:10;53.10;;;9.10;;
54871;SDS011;43914;57.680;11.982;2024-03-22T10:17:39;43.40;;;8.90;;
54871;SDS011;43914;57.680;11.982;2024-03-22T10:20:05;43.00;;;7.30;;
54871;SDS011;43914;57.680;11.982;2024-03-22T10:22:48;50.60;;;7.90;;
54871;SDS011;43914;57.680;11.982;2024-03-22T10:25:20;47.30;;;8.00;;
54871;SDS011;43914;57.680;11.982;2024-03-22T10:27:45;40.10;;;6.50;;
54871;SDS011;43914;57.680;11.982;2024-03-22T10:30:11;41.50;;;8.00;;
54871;SDS011;43914;57.680;11.982;2024-03-22T10:32:41;45.70;;;7.10;;
54871;SDS011;43914;57.680;11.982;2024-03-22T10:35:07;50.90;;;8.60;;
54871;SDS011;43914;57.680;11.982;2024-03-22T10:37:36;52.00;;;7.90;;
54871;SDS011;43914;57.680;11.982;2024-03-22T10:40:02;45.50;;;7.80;;
54871;SDS011;43914;57.680;11.982;2024-03-22T10:42:35;42.00;;;7.00;;
54871;SDS011;43914;57.680;11.982;2024-03-22T10:45:02;53.00;;;8.50;;
54871;SDS011;43914;57.680;11.982;2024-03-22T10:47:31;52.40;;;9.00;;
54871;SDS011;43914;57.680;11.982;2024-03-22T10:50:07;50.60;;;7.60;;
54871;SDS011;43914;57.680;11.982;2024-03-22T10:55:45;37.10;;;7.10;;
54871;SDS011;43914;57.680;11.982;2024-03-22T10:58:15;42.00;;;7.00;;
54871;SDS011;43914;57.680;11.982;2024-03-22T11:00:42;40.10;;;7.60;;
54871;SDS011;43914;57.680;11.982;2024-03-22T11:03:08;42.00;;;6.90;;
54871;SDS011;43914;57.680;11.982;2024-03-22T11:05:34;40.60;;;7.00;;
54871;SDS011;43914;57.680;11.982;2024-03-22T11:08:00;44.90;;;7.60;;
54871;SDS011;43914;57.680;11.982;2024-03-22T11:10:29;48.20;;;7.10;;
54871;SDS011;43914;57.680;11.982;2024-03-22T11:13:01;45.80;;;7.40;;
54871;SDS011;43914;57.680;11.982;2024-03-22T11:15:30;34.60;;;5.90;;
54871;SDS011;43914;57.680;11.982;2024-03-22T11:17:56;45.20;;;7.40;;
54871;SDS011;43914;57.680;11.982;2024-03-22T11:20:23;52.40;;;8.00;;
54871;SDS011;43914;57.680;11.982;2024-03-22T11:22:49;38.30;;;6.40;;
54871;SDS011;43914;57.680;11.982;2024-03-22T11:25:16;39.30;;;7.20;;
54871;SDS011;43914;57.680;11.982;2024-03-22T11:27:41;38.00;;;6.50;;
54871;SDS011;43914;57.680;11.982;2024-03-22T11:30:07;40.30;;;7.60;;
54871;SDS011;43914;57.680;11.982;2024-03-22T11:32:33;37.10;;;7.30;;
54871;SDS011;43914;57.680;11.982;2024-03-22T11:35:07;30.10;;;5.20;;
54871;SDS011;43914;57.680;11.982;2024-03-22T11:37:35;34.20;;;6.40;;
54871;SDS011;43914;57.680;11.982;2024-03-22T11:40:01;42.40;;;6.00;;
54871;SDS011;43914;57.680;11.982;2024-03-22T11:42:31;45.60;;;7.40;;
54871;SDS011;43914;57.680;11.982;2024-03-22T11:44:58;36.50;;;6.50;;
54871;SDS011;43914;57.680;11.982;2024-03-22T11:47:26;41.10;;;7.10;;
54871;SDS011;43914;57.680;11.982;2024-03-22T11:49:51;39.90;;;6.80;;
54871;SDS011;43914;57.680;11.982;2024-03-22T11:52:17;41.80;;;6.70;;
54871;SDS011;43914;57.680;11.982;2024-03-22T11:54:42;35.90;;;6.50;;
54871;SDS011;43914;57.680;11.982;2024-03-22T11:57:11;39.30;;;5.80;;
54871;SDS011;43914;57.680;11.982;2024-03-22T11:59:40;35.40;;;5.60;;
54871;SDS011;43914;57.680;11.982;2024-03-22T12:02:05;31.10;;;5.70;;
54871;SDS011;43914;57.680;11.982;2024-03-22T12:04:34;41.60;;;7.10;;
54871;SDS011;43914;57.680;11.982;2024-03-22T12:07:00;39.70;;;6.30;;
54871;SDS011;43914;57.680;11.982;2024-03-22T12:09:25;35.20;;;6.10;;
54871;SDS011;43914;57.680;11.982;2024-03-22T12:11:50;38.80;;;6.80;;
54871;SDS011;43914;57.680;11.982;2024-03-22T12:14:16;36.10;;;5.90;;
54871;SDS011;43914;57.680;11.982;2024-03-22T12:16:41;37.60;;;6.60;;
54871;SDS011;43914;57.680;11.982;2024-03-22T12:19:07;43.50;;;7.00;;
54871;SDS011;43914;57.680;11.982;2024-03-22T12:21:32;37.10;;;6.20;;
54871;SDS011;43914;57.680;11.982;2024-03-22T12:23:57;32.90;;;5.50;;
54871;SDS011;43914;57.680;11.982;2024-03-22T12:26:23;37.80;;;6.30;;
54871;SDS011;43914;57.680;11.982;2024-03-22T12:28:48;37.20;;;6.20;;
54871;SDS011;43914;57.680;11.982;2024-03-22T12:31:16;35.70;;;5.70;;
54871;SDS011;43914;57.680;11.982;2024-03-22T12:33:42;37.30;;;6.00;;
54871;SDS011;43914;57.680;11.982;2024-03-22T12:36:08;46.40;;;7.10;;
54871;SDS011;43914;57.680;11.982;2024-03-22T12:38:33;37.40;;;6.40;;
54871;SDS011;43914;57.680;11.982;2024-03-22T12:40:58;36.50;;;6.00;;
54871;SDS011;43914;57.680;11.982;2024-03-22T12:43:24;39.60;;;6.00;;
54871;SDS011;43914;57.680;11.982;2024-03-22T12:45:50;39.90;;;6.40;;
54871;SDS011;43914;57.680;11.982;2024-03-22T12:48:15;43.40;;;6.80;;
54871;SDS011;43914;57.680;11.982;2024-03-22T12:50:41;43.40;;;6.50;;
54871;SDS011;43914;57.680;11.982;2024-03-22T12:53:06;43.30;;;6.10;;
54871;SDS011;43914;57.680;11.982;2024-03-22T12:55:32;43.30;;;6.80;;
54871;SDS011;43914;57.680;11.982;2024-03-22T12:57:58;35.00;;;6.10;;
54871;SDS011;43914;57.680;11.982;2024-03-22T13:00:24;38.40;;;6.20;;
54871;SDS011;43914;57.680;11.982;2024-03-22T13:02:50;41.60;;;6.20;;
54871;SDS011;43914;57.680;11.982;2024-03-22T13:05:15;42.40;;;7.00;;
54871;SDS011;43914;57.680;11.982;2024-03-22T13:07:41;38.70;;;5.90;;
54871;SDS011;43914;57.680;11.982;2024-03-22T13:10:07;36.90;;;6.60;;
54871;SDS011;43914;57.680;11.982;2024-03-22T13:12:33;43.00;;;6.90;;
54871;SDS011;43914;57.680;11.982;2024-03-22T13:14:59;43.10;;;6.60;;
54871;SDS011;43914;57.680;11.982;2024-03-22T13:17:25;35.40;;;6.10;;
54871;SDS011;43914;57.680;11.982;2024-03-22T13:19:51;45.90;;;6.90;;
54871;SDS011;43914;57.680;11.982;2024-03-22T13:22:16;42.70;;;6.10;;
54871;SDS011;43914;57.680;11.982;2024-03-22T13:24:45;36.70;;;6.40;;
54871;SDS011;43914;57.680;11.982;2024-03-22T13:27:11;43.60;;;6.70;;
54871;SDS011;43914;57.680;11.982;2024-03-22T13:29:40;38.10;;;5.80;;
54871;SDS011;43914;57.680;11.982;2024-03-22T13:32:06;36.90;;;5.70;;
54871;SDS011;43914;57.680;11.982;2024-03-22T13:34:35;39.60;;;6.30;;
54871;SDS011;43914;57.680;11.982;2024-03-22T13:37:03;53.00;;;7.70;;
54871;SDS011;43914;57.680;11.982;2024-03-22T13:39:29;45.20;;;7.10;;
54871;SDS011;43914;57.680;11.982;2024-03-22T13:41:55;40.10;;;6.70;;
54871;SDS011;43914;57.680;11.982;2024-03-22T13:44:21;45.80;;;6.50;;
54871;SDS011;43914;57.680;11.982;2024-03-22T13:46:48;44.20;;;7.00;;
54871;SDS011;43914;57.680;11.982;2024-03-22T13:49:17;41.90;;;5.70;;
54871;SDS011;43914;57.680;11.982;2024-03-22T13:51:46;39.80;;;7.00;;
54871;SDS011;43914;57.680;11.982;2024-03-22T13:54:12;48.20;;;7.60;;
54871;SDS011;43914;57.680;11.982;2024-03-22T13:56:38;49.00;;;7.50;;
54871;SDS011;43914;57.680;11.982;2024-03-22T13:59:04;46.80;;;7.10;;
54871;SDS011;43914;57.680;11.982;2024-03-22T14:01:34;45.00;;;7.90;;
54871;SDS011;43914;57.680;11.982;2024-03-22T14:04:04;43.50;;;7.10;;
54871;SDS011;43914;57.680;11.982;2024-03-22T14:06:30;38.60;;;6.70;;
54871;SDS011;43914;57.680;11.982;2024-03-22T14:08:57;53.70;;;7.50;;
54871;SDS011;43914;57.680;11.982;2024-03-22T14:11:29;48.60;;;7.60;;
54871;SDS011;43914;57.680;11.982;2024-03-22T14:13:56;43.20;;;7.00;;
54871;SDS011;43914;57.680;11.982;2024-03-22T14:16:24;51.30;;;6.90;;